Time,TemperatureF,DewpointF,PressureIn,WindDirection,WindDirectionDegrees,WindSpeedMPH,WindSpeedGustMPH,Humidity,HourlyPrecipIn,Conditions,Clouds,dailyrainin,SolarRadiationWatts/m^2,SoftwareType,DateUTC
2013-06-01 00:00:00,65.8,64.0,29.68,ESE,115,0.0,0.0,94,0.00,,,0.16,0,Wunderground v.1.15,2013-06-01 05:00:00,
2013-06-01 00:05:00,65.5,63.7,29.68,ESE,115,0.0,0.0,94,0.00,,,0.00,0,Wunderground v.1.15,2013-06-01 05:05:00,
2013-06-01 00:15:00,65.0,63.5,29.68,ESE,115,0.0,0.0,95,0.00,,,0.00,0,Wunderground v.1.15,2013-06-01 05:15:00,
2013-06-01 00:25:00,65.3,63.8,29.66,ESE,115,0.0,0.0,95,0.00,,,0.00,0,Wunderground v.1.15,2013-06-01 05:25:00,
2013-06-01 00:30:00,65.4,63.9,29.66,ESE,115,0.0,0.0,95,0.00,,,0.00,0,Wunderground v.1.15,2013-06-01 05:30:00,
2013-06-01 00:40:00,65.7,64.2,29.66,ESE,115,0.0,0.0,95,0.00,,,0.00,0,Wunderground v.1.15,2013-06-01 05:40:00,
2013-06-01 00:50:00,65.7,64.2,29.66,ESE,115,0.0,0.0,95,0.00,,,0.00,0,Wunderground v.1.15,2013-06-01 05:50:00,
2013-06-01 00:55:00,65.5,64.0,29.65,ESE,115,0.0,0.0,95,0.00,,,0.00,0,Wunderground v.1.15,2013-06-01 05:55:00,
2013-06-01 01:05:00,65.3,63.8,29.64,East,101,0.0,2.0,95,0.00,,,0.00,0,Wunderground v.1.15,2013-06-01 06:05:00,
2013-06-01 01:15:00,65.6,64.4,29.65,SE,146,1.0,3.0,96,0.00,,,0.00,0,Wunderground v.1.15,2013-06-01 06:15:00,
2013-06-01 01:25:00,66.5,65.3,29.65,SE,144,1.0,2.0,96,0.00,,,0.00,0,Wunderground v.1.15,2013-06-01 06:25:00,
2013-06-01 01:30:00,67.0,65.5,29.65,SE,141,1.0,1.0,95,0.00,,,0.00,0,Wunderground v.1.15,2013-06-01 06:30:00,
2013-06-01 01:40:00,67.6,66.1,29.65,SE,136,0.0,0.0,95,0.00,,,0.00,0,Wunderground v.1.15,2013-06-01 06:40:00,
2013-06-01 01:45:00,67.8,66.0,29.65,SE,146,0.0,0.0,94,0.00,,,0.00,0,Wunderground v.1.15,2013-06-01 06:45:00,
2013-06-01 01:55:00,68.3,66.5,29.66,SSW,194,1.0,3.0,94,0.00,,,0.00,0,Wunderground v.1.15,2013-06-01 06:55:00,
2013-06-01 02:05:00,68.3,66.5,29.66,SE,136,1.0,2.0,94,0.00,,,0.00,0,Wunderground v.1.15,2013-06-01 07:05:00,
2013-06-01 02:10:00,68.4,66.6,29.66,South,169,0.0,0.0,94,0.00,,,0.00,0,Wunderground v.1.15,2013-06-01 07:10:00,
2013-06-01 02:20:00,68.7,66.9,29.66,SW,224,0.0,2.0,94,0.00,,,0.00,0,Wunderground v.1.15,2013-06-01 07:20:00,
2013-06-01 02:30:00,68.9,66.8,29.65,SSW,208,1.0,1.0,93,0.00,,,0.00,0,Wunderground v.1.15,2013-06-01 07:30:00,
2013-06-01 02:40:00,68.9,66.8,29.64,SSW,212,1.0,1.0,93,0.00,,,0.00,0,Wunderground v.1.15,2013-06-01 07:40:00,
2013-06-01 02:45:00,68.9,66.8,29.64,SSW,202,1.0,1.0,93,0.00,,,0.00,0,Wunderground v.1.15,2013-06-01 07:45:00,
2013-06-01 02:55:00,68.7,66.6,29.64,South,175,0.0,1.0,93,0.00,,,0.00,0,Wunderground v.1.15,2013-06-01 07:55:00,
2013-06-01 03:05:00,68.8,66.7,29.64,SW,217,1.0,1.0,93,0.00,,,0.00,0,Wunderground v.1.15,2013-06-01 08:05:00,
2013-06-01 03:15:00,69.0,66.6,29.64,South,186,1.0,3.0,92,0.00,,,0.00,0,Wunderground v.1.15,2013-06-01 08:15:00,
2013-06-01 03:25:00,69.1,66.7,29.64,SSW,211,2.0,2.0,92,0.00,,,0.00,0,Wunderground v.1.15,2013-06-01 08:25:00,
2013-06-01 03:35:00,69.3,66.6,29.63,SSW,211,4.0,5.0,91,0.00,,,0.00,0,Wunderground v.1.15,2013-06-01 08:35:00,
2013-06-01 03:45:00,69.5,66.4,29.63,SW,217,4.0,4.0,90,0.00,,,0.00,0,Wunderground v.1.15,2013-06-01 08:45:00,
2013-06-01 03:55:00,69.3,65.9,29.63,SW,223,5.0,5.0,89,0.00,,,0.00,0,Wunderground v.1.15,2013-06-01 08:55:00,
2013-06-01 04:05:00,69.2,65.8,29.63,SW,219,5.0,6.0,89,0.00,,,0.00,0,Wunderground v.1.15,2013-06-01 09:05:00,
2013-06-01 04:15:00,69.1,66.0,29.63,SW,227,5.0,5.0,90,0.00,,,0.00,0,Wunderground v.1.15,2013-06-01 09:15:00,
2013-06-01 04:20:00,68.9,65.8,29.63,SSW,209,3.0,3.0,90,0.00,,,0.00,0,Wunderground v.1.15,2013-06-01 09:20:00,
2013-06-01 04:30:00,68.8,65.7,29.62,SSW,201,3.0,5.0,90,0.00,,,0.00,0,Wunderground v.1.15,2013-06-01 09:30:00,
2013-06-01 04:40:00,68.7,66.0,29.62,SSW,200,2.0,2.0,91,0.00,,,0.00,0,Wunderground v.1.15,2013-06-01 09:40:00,
2013-06-01 04:50:00,68.6,65.9,29.63,SW,214,2.0,2.0,91,0.00,,,0.00,0,Wunderground v.1.15,2013-06-01 09:50:00,
2013-06-01 04:55:00,68.7,66.0,29.63,SSW,194,3.0,4.0,91,0.00,,,0.00,0,Wunderground v.1.15,2013-06-01 09:55:00,
2013-06-01 05:05:00,68.6,65.9,29.64,SW,215,3.0,7.0,91,0.00,,,0.00,0,Wunderground v.1.15,2013-06-01 10:05:00,
2013-06-01 05:15:00,68.7,66.0,29.64,SSW,197,4.0,5.0,91,0.00,,,0.00,0,Wunderground v.1.15,2013-06-01 10:15:00,
2013-06-01 05:25:00,68.5,65.4,29.65,SSW,206,3.0,6.0,90,0.00,,,0.00,0,Wunderground v.1.15,2013-06-01 10:25:00,
2013-06-01 05:35:00,68.5,65.1,29.65,SW,214,4.0,6.0,89,0.00,,,0.00,0,Wunderground v.1.15,2013-06-01 10:35:00,
2013-06-01 05:45:00,68.3,64.9,29.66,SW,217,6.0,12.0,89,0.00,,,0.00,18,Wunderground v.1.15,2013-06-01 10:45:00,
2013-06-01 05:55:00,68.2,64.5,29.66,SSW,197,6.0,8.0,88,0.00,,,0.00,42,Wunderground v.1.15,2013-06-01 10:55:00,
2013-06-01 06:05:00,68.0,64.6,29.66,SSW,213,4.0,6.0,89,0.00,,,0.00,47,Wunderground v.1.15,2013-06-01 11:05:00,
2013-06-01 06:15:00,67.9,64.9,29.65,SW,227,2.0,2.0,90,0.00,,,0.00,51,Wunderground v.1.15,2013-06-01 11:15:00,
2013-06-01 06:25:00,67.8,64.4,29.65,SSW,212,2.0,5.0,89,0.00,,,0.00,69,Wunderground v.1.15,2013-06-01 11:25:00,
2013-06-01 06:30:00,67.8,64.8,29.66,SSW,210,2.0,3.0,90,0.00,,,0.00,63,Wunderground v.1.15,2013-06-01 11:30:00,
2013-06-01 06:40:00,67.5,64.5,29.65,SSW,200,0.0,0.0,90,0.00,,,0.00,84,Wunderground v.1.15,2013-06-01 11:40:00,
2013-06-01 06:50:00,67.4,64.7,29.65,SW,214,1.0,2.0,91,0.00,,,0.00,118,Wunderground v.1.15,2013-06-01 11:50:00,
2013-06-01 07:00:00,67.3,64.3,29.65,SSW,203,2.0,2.0,90,0.00,,,0.00,116,Wunderground v.1.15,2013-06-01 12:00:00,
2013-06-01 07:05:00,67.4,64.4,29.65,SE,136,2.0,2.0,90,0.00,,,0.00,142,Wunderground v.1.15,2013-06-01 12:05:00,
2013-06-01 07:15:00,67.6,64.6,29.65,South,191,2.0,2.0,90,0.00,,,0.00,188,Wunderground v.1.15,2013-06-01 12:15:00,
2013-06-01 07:20:00,67.7,64.7,29.65,SE,139,2.0,3.0,90,0.00,,,0.00,186,Wunderground v.1.15,2013-06-01 12:20:00,
2013-06-01 07:30:00,67.8,64.8,29.66,SSW,196,4.0,4.0,90,0.00,,,0.00,265,Wunderground v.1.15,2013-06-01 12:30:00,
2013-06-01 07:35:00,67.8,64.4,29.66,East,88,3.0,4.0,89,0.00,,,0.00,162,Wunderground v.1.15,2013-06-01 12:35:00,
2013-06-01 07:45:00,67.9,64.5,29.66,SSW,212,2.0,3.0,89,0.00,,,0.00,123,Wunderground v.1.15,2013-06-01 12:45:00,
2013-06-01 07:55:00,67.7,64.3,29.66,SSE,165,3.0,4.0,89,0.00,,,0.00,158,Wunderground v.1.15,2013-06-01 12:55:00,
2013-06-01 08:05:00,67.9,64.5,29.66,SSW,212,2.0,3.0,89,0.00,,,0.00,202,Wunderground v.1.15,2013-06-01 13:05:00,
2013-06-01 08:15:00,68.1,64.7,29.67,SW,219,3.0,4.0,89,0.00,,,0.00,295,Wunderground v.1.15,2013-06-01 13:15:00,
2013-06-01 08:25:00,68.2,64.5,29.67,South,174,4.0,6.0,88,0.00,,,0.00,264,Wunderground v.1.15,2013-06-01 13:25:00,
2013-06-01 08:30:00,68.3,64.3,29.68,ESE,108,5.0,5.0,87,0.00,,,0.00,387,Wunderground v.1.15,2013-06-01 13:30:00,
2013-06-01 08:40:00,68.5,64.5,29.68,West,264,5.0,5.0,87,0.00,,,0.00,229,Wunderground v.1.15,2013-06-01 13:40:00,
2013-06-01 08:50:00,68.4,64.0,29.68,WSW,245,5.0,5.0,86,0.00,,,0.00,311,Wunderground v.1.15,2013-06-01 13:50:00,
2013-06-01 09:00:00,68.6,63.9,29.68,South,182,4.0,4.0,85,0.00,,,0.00,640,Wunderground v.1.15,2013-06-01 14:00:00,
2013-06-01 09:05:00,68.7,64.0,29.68,SSE,164,4.0,4.0,85,0.00,,,0.00,348,Wunderground v.1.15,2013-06-01 14:05:00,
2013-06-01 09:15:00,68.9,64.5,29.68,SSW,213,3.0,4.0,86,0.00,,,0.00,531,Wunderground v.1.15,2013-06-01 14:15:00,
2013-06-01 09:20:00,69.1,64.1,29.69,SSW,206,4.0,4.0,84,0.00,,,0.00,564,Wunderground v.1.15,2013-06-01 14:20:00,
2013-06-01 09:30:00,69.7,64.0,29.69,SSW,213,4.0,6.0,82,0.00,,,0.00,737,Wunderground v.1.15,2013-06-01 14:30:00,
2013-06-01 09:35:00,69.7,63.6,29.68,South,188,4.0,6.0,81,0.00,,,0.00,629,Wunderground v.1.15,2013-06-01 14:35:00,
2013-06-01 09:45:00,69.9,63.4,29.69,ESE,115,5.0,5.0,80,0.00,,,0.00,577,Wunderground v.1.15,2013-06-01 14:45:00,
2013-06-01 09:55:00,70.1,63.3,29.69,WSW,248,5.0,6.0,79,0.00,,,0.00,601,Wunderground v.1.15,2013-06-01 14:55:00,
2013-06-01 10:05:00,70.1,62.6,29.68,SW,222,4.0,8.0,77,0.00,,,0.00,754,Wunderground v.1.15,2013-06-01 15:05:00,
2013-06-01 10:15:00,70.6,63.0,29.68,South,178,4.0,5.0,77,0.00,,,0.00,503,Wunderground v.1.15,2013-06-01 15:15:00,
2013-06-01 10:25:00,69.7,62.9,29.69,SSW,206,5.0,6.0,79,0.00,,,0.00,380,Wunderground v.1.15,2013-06-01 15:25:00,
2013-06-01 10:35:00,69.9,63.4,29.69,West,269,3.0,5.0,80,0.00,,,0.00,332,Wunderground v.1.15,2013-06-01 15:35:00,
2013-06-01 10:45:00,70.7,63.5,29.68,South,169,2.0,2.0,78,0.00,,,0.00,352,Wunderground v.1.15,2013-06-01 15:45:00,
2013-06-01 10:50:00,70.7,63.1,29.68,SW,225,3.0,3.0,77,0.00,,,0.00,480,Wunderground v.1.15,2013-06-01 15:50:00,
2013-06-01 11:00:00,71.5,63.2,29.68,SSE,153,3.0,9.0,75,0.00,,,0.00,791,Wunderground v.1.15,2013-06-01 16:00:00,
2013-06-01 11:05:00,71.2,63.6,29.68,SW,215,4.0,9.0,77,0.00,,,0.00,378,Wunderground v.1.15,2013-06-01 16:05:00,
2013-06-01 11:15:00,71.1,62.8,29.68,SSW,200,6.0,7.0,75,0.00,,,0.00,974,Wunderground v.1.15,2013-06-01 16:15:00,
2013-06-01 11:25:00,72.2,63.1,29.68,ESE,109,4.0,6.0,73,0.00,,,0.00,438,Wunderground v.1.15,2013-06-01 16:25:00,
2013-06-01 11:35:00,71.9,63.2,29.68,SSW,203,5.0,5.0,74,0.00,,,0.00,740,Wunderground v.1.15,2013-06-01 16:35:00,
2013-06-01 11:45:00,71.6,63.6,29.68,SSE,165,5.0,5.0,76,0.00,,,0.00,471,Wunderground v.1.15,2013-06-01 16:45:00,
2013-06-01 11:55:00,71.6,63.6,29.69,SSW,207,5.0,5.0,76,0.00,,,0.00,413,Wunderground v.1.15,2013-06-01 16:55:00,
2013-06-01 12:05:00,71.5,63.2,29.68,South,179,6.0,13.0,75,0.00,,,0.00,1171,Wunderground v.1.15,2013-06-01 17:05:00,
2013-06-01 12:15:00,71.6,62.1,29.67,SW,223,5.0,7.0,72,0.00,,,0.00,942,Wunderground v.1.15,2013-06-01 17:15:00,
2013-06-01 12:25:00,71.6,62.1,29.67,SSW,205,7.0,10.0,72,0.00,,,0.00,587,Wunderground v.1.15,2013-06-01 17:25:00,
2013-06-01 12:35:00,72.1,62.2,29.68,SSW,205,7.0,9.0,71,0.00,,,0.00,1067,Wunderground v.1.15,2013-06-01 17:35:00,
2013-06-01 12:40:00,71.8,61.9,29.68,SW,225,8.0,8.0,71,0.00,,,0.00,838,Wunderground v.1.15,2013-06-01 17:40:00,
2013-06-01 12:50:00,72.1,63.4,29.68,SSE,153,7.0,7.0,74,0.00,,,0.00,701,Wunderground v.1.15,2013-06-01 17:50:00,
2013-06-01 13:00:00,71.9,62.8,29.68,SSW,202,8.0,8.0,73,0.00,,,0.00,1121,Wunderground v.1.15,2013-06-01 18:00:00,
2013-06-01 13:10:00,71.7,62.2,29.68,WSW,237,7.0,17.0,72,0.00,,,0.00,554,Wunderground v.1.15,2013-06-01 18:10:00,
2013-06-01 13:20:00,72.0,62.5,29.68,SSE,153,10.0,10.0,72,0.00,,,0.00,965,Wunderground v.1.15,2013-06-01 18:20:00,
2013-06-01 13:25:00,72.3,62.4,29.68,SE,146,8.0,10.0,71,0.00,,,0.00,686,Wunderground v.1.15,2013-06-01 18:25:00,
2013-06-01 13:35:00,72.4,63.3,29.67,WSW,244,5.0,13.0,73,0.00,,,0.00,512,Wunderground v.1.15,2013-06-01 18:35:00,
2013-06-01 13:45:00,72.3,63.2,29.66,SW,214,4.0,8.0,73,0.00,,,0.00,519,Wunderground v.1.15,2013-06-01 18:45:00,
2013-06-01 13:55:00,73.1,63.1,29.66,SSW,211,4.0,11.0,71,0.00,,,0.00,520,Wunderground v.1.15,2013-06-01 18:55:00,
2013-06-01 14:05:00,72.5,63.0,29.66,SW,229,6.0,6.0,72,0.00,,,0.00,522,Wunderground v.1.15,2013-06-01 19:05:00,
2013-06-01 14:15:00,72.8,63.2,29.66,SSW,211,5.0,5.0,72,0.00,,,0.00,385,Wunderground v.1.15,2013-06-01 19:15:00,
2013-06-01 14:25:00,73.0,63.4,29.66,South,175,4.0,7.0,72,0.00,,,0.00,441,Wunderground v.1.15,2013-06-01 19:25:00,
2013-06-01 14:30:00,72.8,63.2,29.66,South,188,6.0,6.0,72,0.00,,,0.00,534,Wunderground v.1.15,2013-06-01 19:30:00,
2013-06-01 14:40:00,73.0,63.8,29.65,SSW,199,5.0,9.0,73,0.00,,,0.00,446,Wunderground v.1.15,2013-06-01 19:40:00,
2013-06-01 14:50:00,72.9,63.7,29.66,SW,221,8.0,14.0,73,0.00,,,0.00,856,Wunderground v.1.15,2013-06-01 19:50:00,
2013-06-01 15:00:00,73.0,62.2,29.65,SSW,213,11.0,11.0,69,0.00,,,0.00,485,Wunderground v.1.15,2013-06-01 20:00:00,
2013-06-01 15:05:00,72.9,62.1,29.65,SSW,203,11.0,11.0,69,0.00,,,0.00,617,Wunderground v.1.15,2013-06-01 20:05:00,
2013-06-01 15:15:00,73.1,62.7,29.65,SE,146,8.0,10.0,70,0.00,,,0.00,780,Wunderground v.1.15,2013-06-01 20:15:00,
2013-06-01 15:25:00,72.8,63.6,29.65,SSW,193,7.0,10.0,73,0.00,,,0.00,603,Wunderground v.1.15,2013-06-01 20:25:00,
2013-06-01 15:35:00,73.2,63.6,29.64,South,188,5.0,7.0,72,0.00,,,0.00,529,Wunderground v.1.15,2013-06-01 20:35:00,
2013-06-01 15:45:00,73.5,64.7,29.64,SSW,205,6.0,9.0,74,0.00,,,0.00,860,Wunderground v.1.15,2013-06-01 20:45:00,
2013-06-01 15:50:00,73.5,63.9,29.64,SW,216,6.0,6.0,72,0.00,,,0.00,937,Wunderground v.1.15,2013-06-01 20:50:00,
2013-06-01 16:00:00,73.7,63.3,29.64,South,180,7.0,7.0,70,0.00,,,0.00,601,Wunderground v.1.15,2013-06-01 21:00:00,
2013-06-01 16:05:00,73.3,63.7,29.64,SSW,196,7.0,8.0,72,0.00,,,0.00,424,Wunderground v.1.15,2013-06-01 21:05:00,
2013-06-01 16:15:00,74.5,64.1,29.64,SSW,192,7.0,8.0,70,0.00,,,0.00,809,Wunderground v.1.15,2013-06-01 21:15:00,
2013-06-01 16:25:00,74.3,64.3,29.63,WSW,239,5.0,5.0,71,0.00,,,0.00,768,Wunderground v.1.15,2013-06-01 21:25:00,
2013-06-01 16:35:00,74.7,64.3,29.63,SSW,209,5.0,6.0,70,0.00,,,0.00,664,Wunderground v.1.15,2013-06-01 21:35:00,
2013-06-01 16:45:00,74.6,64.2,29.63,South,185,4.0,10.0,70,0.00,,,0.00,617,Wunderground v.1.15,2013-06-01 21:45:00,
2013-06-01 16:55:00,74.9,63.6,29.62,South,179,4.0,4.0,68,0.00,,,0.00,645,Wunderground v.1.15,2013-06-01 21:55:00,
2013-06-01 17:05:00,74.9,64.0,29.62,SSW,198,3.0,6.0,69,0.00,,,0.00,524,Wunderground v.1.15,2013-06-01 22:05:00,
2013-06-01 17:10:00,74.3,63.1,29.62,SSW,194,3.0,4.0,68,0.00,,,0.00,172,Wunderground v.1.15,2013-06-01 22:10:00,
2013-06-01 17:20:00,74.6,63.3,29.62,South,183,4.0,4.0,68,0.00,,,0.00,587,Wunderground v.1.15,2013-06-01 22:20:00,
2013-06-01 17:30:00,75.2,64.7,29.61,SSW,213,5.0,5.0,70,0.00,,,0.00,529,Wunderground v.1.15,2013-06-01 22:30:00,
2013-06-01 17:40:00,74.5,64.1,29.61,SW,215,5.0,5.0,70,0.00,,,0.00,121,Wunderground v.1.15,2013-06-01 22:40:00,
2013-06-01 17:50:00,74.1,63.7,29.61,South,182,3.0,3.0,70,0.00,,,0.00,160,Wunderground v.1.15,2013-06-01 22:50:00,
2013-06-01 18:00:00,74.0,64.0,29.61,South,173,2.0,5.0,71,0.00,,,0.00,149,Wunderground v.1.15,2013-06-01 23:00:00,
2013-06-01 18:05:00,73.8,63.4,29.61,SSW,205,3.0,6.0,70,0.00,,,0.00,77,Wunderground v.1.15,2013-06-01 23:05:00,
2013-06-01 18:15:00,73.5,63.9,29.61,SSW,207,3.0,3.0,72,0.00,,,0.00,49,Wunderground v.1.15,2013-06-01 23:15:00,
2013-06-01 18:25:00,73.3,64.1,29.61,SW,217,1.0,2.0,73,0.00,,,0.00,60,Wunderground v.1.15,2013-06-01 23:25:00,
2013-06-01 18:35:00,73.3,64.1,29.60,ESE,123,0.0,3.0,73,0.00,,,0.00,51,Wunderground v.1.15,2013-06-01 23:35:00,
2013-06-01 18:45:00,72.8,63.6,29.60,NE,48,1.0,1.0,73,0.00,,,0.00,21,Wunderground v.1.15,2013-06-01 23:45:00,
2013-06-01 18:50:00,72.6,64.2,29.60,South,185,2.0,2.0,75,0.00,,,0.00,12,Wunderground v.1.15,2013-06-01 23:50:00,
2013-06-01 19:00:00,70.3,64.5,29.61,South,176,3.0,3.0,82,0.50,,,0.05,7,Wunderground v.1.15,2013-06-02 00:00:00,
2013-06-01 19:05:00,69.2,64.5,29.63,WSW,250,5.0,11.0,85,0.66,,,0.09,7,Wunderground v.1.15,2013-06-02 00:05:00,
2013-06-01 19:15:00,67.7,63.7,29.61,WNW,296,6.0,9.0,87,0.25,,,0.21,39,Wunderground v.1.15,2013-06-02 00:15:00,
2013-06-01 19:25:00,67.3,64.9,29.61,WNW,296,0.0,2.0,92,0.06,,,0.21,69,Wunderground v.1.15,2013-06-02 00:25:00,
2013-06-01 19:35:00,67.2,65.1,29.61,SE,128,0.0,0.0,93,0.00,,,0.21,74,Wunderground v.1.15,2013-06-02 00:35:00,
2013-06-01 19:40:00,67.0,64.6,29.61,South,171,0.0,0.0,92,0.00,,,0.21,107,Wunderground v.1.15,2013-06-02 00:40:00,
2013-06-01 19:50:00,66.7,64.0,29.61,SSW,213,0.0,4.0,91,0.00,,,0.21,54,Wunderground v.1.15,2013-06-02 00:50:00,
2013-06-01 19:55:00,66.7,63.4,29.62,SW,225,2.0,4.0,89,0.00,,,0.21,49,Wunderground v.1.15,2013-06-02 00:55:00,
2013-06-01 20:05:00,66.8,63.1,29.62,SW,236,6.0,6.0,88,0.00,,,0.21,26,Wunderground v.1.15,2013-06-02 01:05:00,
2013-06-01 20:15:00,66.5,62.5,29.62,SW,225,5.0,6.0,87,0.00,,,0.21,11,Wunderground v.1.15,2013-06-02 01:15:00,
2013-06-01 20:25:00,66.0,61.7,29.62,SSW,209,4.0,5.0,86,0.00,,,0.21,7,Wunderground v.1.15,2013-06-02 01:25:00,
2013-06-01 20:35:00,65.6,61.3,29.62,SSW,211,3.0,5.0,86,0.00,,,0.21,0,Wunderground v.1.15,2013-06-02 01:35:00,
2013-06-01 20:40:00,65.4,61.8,29.63,SW,217,3.0,3.0,88,0.00,,,0.21,0,Wunderground v.1.15,2013-06-02 01:40:00,
2013-06-01 20:50:00,65.2,61.6,29.63,SW,231,5.0,7.0,88,0.00,,,0.21,0,Wunderground v.1.15,2013-06-02 01:50:00,
2013-06-01 21:00:00,65.0,61.4,29.63,SW,234,5.0,5.0,88,0.00,,,0.21,0,Wunderground v.1.15,2013-06-02 02:00:00,
2013-06-01 21:10:00,64.8,61.5,29.64,SW,229,4.0,4.0,89,0.00,,,0.21,0,Wunderground v.1.15,2013-06-02 02:10:00,
2013-06-01 21:20:00,64.1,61.1,29.65,WSW,238,5.0,5.0,90,0.00,,,0.21,0,Wunderground v.1.15,2013-06-02 02:20:00,
2013-06-01 21:25:00,63.9,60.9,29.65,SW,225,5.0,5.0,90,0.00,,,0.21,0,Wunderground v.1.15,2013-06-02 02:25:00,
2013-06-01 21:35:00,64.0,61.3,29.65,WSW,246,5.0,5.0,91,0.00,,,0.21,0,Wunderground v.1.15,2013-06-02 02:35:00,
2013-06-01 21:40:00,64.3,61.3,29.65,WSW,240,5.0,5.0,90,0.00,,,0.21,0,Wunderground v.1.15,2013-06-02 02:40:00,
2013-06-01 21:50:00,65.1,61.1,29.65,WSW,246,6.0,7.0,87,0.00,,,0.21,0,Wunderground v.1.15,2013-06-02 02:50:00,
2013-06-01 22:00:00,65.2,61.2,29.65,SW,225,6.0,6.0,87,0.00,,,0.21,0,Wunderground v.1.15,2013-06-02 03:00:00,
2013-06-01 22:10:00,65.3,61.0,29.65,WSW,244,5.0,5.0,86,0.00,,,0.21,0,Wunderground v.1.15,2013-06-02 03:10:00,
2013-06-01 22:20:00,65.1,60.8,29.65,WSW,244,5.0,7.0,86,0.00,,,0.21,0,Wunderground v.1.15,2013-06-02 03:20:00,
2013-06-01 22:25:00,65.2,60.6,29.65,WSW,243,5.0,7.0,85,0.00,,,0.21,0,Wunderground v.1.15,2013-06-02 03:25:00,
2013-06-01 22:35:00,65.3,60.3,29.65,WSW,250,6.0,6.0,84,0.00,,,0.21,0,Wunderground v.1.15,2013-06-02 03:35:00,
2013-06-01 22:45:00,64.9,59.9,29.65,WSW,243,6.0,7.0,84,0.00,,,0.21,0,Wunderground v.1.15,2013-06-02 03:45:00,
2013-06-01 22:55:00,64.8,60.5,29.66,WSW,247,6.0,7.0,86,0.00,,,0.21,0,Wunderground v.1.15,2013-06-02 03:55:00,
2013-06-01 23:05:00,64.8,59.9,29.66,WSW,249,5.0,6.0,84,0.00,,,0.21,0,Wunderground v.1.15,2013-06-02 04:05:00,
2013-06-01 23:10:00,64.8,59.9,29.66,WSW,246,5.0,5.0,84,0.00,,,0.21,0,Wunderground v.1.15,2013-06-02 04:10:00,
2013-06-01 23:15:00,64.6,59.7,29.66,SW,236,4.0,5.0,84,0.00,,,0.21,0,Wunderground v.1.15,2013-06-02 04:15:00,
2013-06-01 23:20:00,64.5,59.6,29.66,WSW,240,4.0,4.0,84,0.00,,,0.21,0,Wunderground v.1.15,2013-06-02 04:20:00,
2013-06-01 23:30:00,64.5,58.9,29.66,WNW,284,3.0,4.0,82,0.00,,,0.21,0,Wunderground v.1.15,2013-06-02 04:30:00,
2013-06-01 23:35:00,64.6,59.0,29.66,WNW,284,2.0,4.0,82,0.00,,,0.21,0,Wunderground v.1.15,2013-06-02 04:35:00,
2013-06-01 23:45:00,64.4,58.8,29.66,WNW,292,3.0,3.0,82,0.00,,,0.21,0,Wunderground v.1.15,2013-06-02 04:45:00,
2013-06-01 23:50:00,64.4,58.8,29.66,WNW,300,3.0,4.0,82,0.00,,,0.21,0,Wunderground v.1.15,2013-06-02 04:50:00,
2013-06-01 23:55:00,64.4,58.8,29.66,West,281,4.0,4.0,82,0.00,,,0.21,0,Wunderground v.1.15,2013-06-02 04:55:00,